Time;durP1;ratioP1;P1;durP2;ratioP2;P2;SDS_P1;SDS_P2;PMS_P1;PMS_P2;Temp;Humidity;BMP_temperature;BMP_pressure;BME280_temperature;BME280_humidity;BME280_pressure;Samples;Min_cycle;Max_cycle;Signal;HPM_P1;HPM_P2
2024/03/14 17:36:18;;;;;;;3.07;2.87;;;14.90;99.90;;;;;;4954222;23;20477;-78
2024/03/14 17:38:44;;;;;;;2.83;2.63;;;14.90;99.90;;;;;;4929815;29;20459;-78
2024/03/14 17:41:12;;;;;;;3.20;2.87;;;15.00;99.90;;;;;;4899950;28;20452;-77
2024/03/14 17:43:40;;;;;;;4.67;2.83;;;14.90;99.90;;;;;;4909637;29;20497;-78
2024/03/14 17:46:06;;;;;;;3.07;2.77;;;14.90;99.90;;;;;;4929540;28;20947;-78
2024/03/14 17:48:34;;;;;;;2.90;2.60;;;14.90;99.90;;;;;;4931738;28;20451;-77
2024/03/14 17:51:00;;;;;;;2.87;2.67;;;14.90;99.90;;;;;;4936652;28;20451;-77
2024/03/14 17:53:29;;;;;;;2.80;2.60;;;15.00;99.90;;;;;;4916070;28;20428;-77
2024/03/14 17:55:56;;;;;;;2.90;2.70;;;15.00;99.90;;;;;;4948211;28;20430;-78
2024/03/14 17:58:24;;;;;;;2.87;2.67;;;15.00;99.90;;;;;;4949221;28;20454;-77
2024/03/14 18:00:52;;;;;;;3.30;3.10;;;15.00;99.90;;;;;;4947083;28;20545;-77
2024/03/14 18:03:21;;;;;;;3.23;2.93;;;15.00;99.90;;;;;;4926600;28;20479;-77
2024/03/14 18:05:51;;;;;;;3.60;3.30;;;15.00;99.90;;;;;;4910402;29;20440;-77
2024/03/14 18:08:17;;;;;;;3.40;3.10;;;15.00;99.90;;;;;;4941997;28;20450;-77
2024/03/14 18:10:49;;;;;;;4.60;3.20;;;15.00;99.90;;;;;;4943152;28;20443;-76
2024/03/14 18:13:18;;;;;;;3.37;3.07;;;15.00;99.90;;;;;;4921951;28;20431;-76
2024/03/14 18:15:48;;;;;;;3.07;2.87;;;15.00;99.90;;;;;;4905489;29;20486;-76
2024/03/14 18:18:21;;;;;;;2.50;2.23;;;15.00;99.90;;;;;;4920948;28;20456;-75
2024/03/14 18:20:47;;;;;;;4.90;2.60;;;14.90;99.90;;;;;;4921054;29;20550;-76
2024/03/14 18:23:15;;;;;;;3.30;3.03;;;15.00;99.90;;;;;;4905023;28;21025;-77
2024/03/14 18:25:45;;;;;;;2.43;2.23;;;15.00;99.90;;;;;;4905490;28;20451;-77
2024/03/14 18:28:15;;;;;;;3.10;2.43;;;15.00;99.90;;;;;;4890411;28;20431;-77
2024/03/14 18:30:43;;;;;;;3.27;2.70;;;14.90;99.90;;;;;;4925981;28;20497;-77
2024/03/14 18:33:12;;;;;;;3.40;3.10;;;15.00;99.90;;;;;;4929448;28;20458;-77
2024/03/14 18:35:41;;;;;;;2.97;2.77;;;15.00;99.90;;;;;;4928285;28;21161;-75
2024/03/14 18:38:09;;;;;;;3.80;3.47;;;14.90;99.90;;;;;;4910694;28;20534;-75
2024/03/14 18:40:40;;;;;;;4.60;2.77;;;14.90;99.90;;;;;;4941427;28;20467;-75
2024/03/14 18:43:06;;;;;;;3.53;2.90;;;15.00;99.90;;;;;;4912056;28;21079;-78
2024/03/14 18:45:37;;;;;;;2.83;2.63;;;14.90;99.90;;;;;;4944635;28;20530;-76
2024/03/14 18:48:04;;;;;;;2.63;2.50;;;14.90;99.90;;;;;;4948276;28;20878;-76
2024/03/14 18:50:31;;;;;;;3.60;3.40;;;14.90;99.90;;;;;;4925726;28;20435;-75
2024/03/14 18:52:57;;;;;;;3.13;2.80;;;14.90;99.90;;;;;;4930458;28;20458;-76
2024/03/14 18:55:28;;;;;;;3.40;3.10;;;14.90;99.90;;;;;;4928570;28;20431;-76
2024/03/14 18:57:53;;;;;;;3.63;3.30;;;14.90;99.90;;;;;;4927510;28;20448;-77
2024/03/14 19:00:23;;;;;;;3.10;2.90;;;15.00;99.90;;;;;;4942243;28;20856;-77
2024/03/14 19:02:49;;;;;;;2.73;2.53;;;14.90;99.90;;;;;;4911681;29;20487;-76
2024/03/14 19:05:16;;;;;;;3.07;2.87;;;14.90;99.90;;;;;;4924911;28;20447;-76
2024/03/14 19:07:45;;;;;;;3.07;2.77;;;14.90;99.90;;;;;;4910673;28;20513;-76
2024/03/14 19:10:18;;;;;;;3.07;2.87;;;14.90;99.90;;;;;;4909886;28;20605;-77
2024/03/14 19:12:47;;;;;;;2.70;2.50;;;14.90;99.90;;;;;;4909942;29;20781;-76
2024/03/14 19:15:14;;;;;;;2.83;2.50;;;14.90;99.90;;;;;;4941904;28;20415;-77
2024/03/14 19:17:43;;;;;;;3.07;2.77;;;14.90;99.90;;;;;;4923866;28;20435;-77
2024/03/14 19:20:12;;;;;;;3.13;2.93;;;14.90;99.90;;;;;;4906657;28;21150;-76
2024/03/14 19:22:38;;;;;;;3.23;2.90;;;14.90;99.90;;;;;;4904407;28;20428;-77
2024/03/14 19:25:09;;;;;;;3.00;2.80;;;14.90;99.90;;;;;;4909053;28;20491;-77
2024/03/14 19:27:40;;;;;;;3.10;2.80;;;14.90;99.90;;;;;;4902602;28;20428;-76
2024/03/14 19:30:08;;;;;;;3.47;3.17;;;14.90;99.90;;;;;;4918566;28;20979;-76
2024/03/14 19:32:35;;;;;;;4.57;2.93;;;14.90;99.90;;;;;;4924920;28;20435;-77
2024/03/14 19:35:03;;;;;;;3.77;2.90;;;14.90;99.90;;;;;;4941408;28;21026;-76
2024/03/14 19:37:29;;;;;;;4.50;2.90;;;14.90;99.90;;;;;;4927494;28;20878;-76
2024/03/14 19:39:59;;;;;;;3.47;3.17;;;14.90;99.90;;;;;;4935040;28;20447;-76
2024/03/14 19:42:25;;;;;;;4.57;3.00;;;14.90;99.90;;;;;;4921270;29;20549;-76
2024/03/14 19:44:51;;;;;;;3.20;2.90;;;14.90;99.90;;;;;;4946398;28;20514;-76
2024/03/14 19:47:18;;;;;;;3.00;2.80;;;14.90;99.90;;;;;;4929442;28;20435;-74
2024/03/14 19:49:48;;;;;;;2.70;2.50;;;14.90;99.90;;;;;;4928962;29;20941;-75
2024/03/14 19:52:14;;;;;;;3.20;2.87;;;14.90;99.90;;;;;;4919392;28;21007;-76
2024/03/14 19:54:42;;;;;;;3.03;2.77;;;14.90;99.90;;;;;;4916754;28;20445;-75
2024/03/14 19:57:08;;;;;;;3.50;3.20;;;14.90;99.90;;;;;;4938264;28;20433;-75
2024/03/14 19:59:34;;;;;;;3.07;2.87;;;14.90;99.90;;;;;;4930836;28;20501;-76
2024/03/14 20:02:08;;;;;;;3.10;2.80;;;14.90;99.90;;;;;;4929371;28;20459;-75
2024/03/14 20:04:40;;;;;;;5.80;3.13;;;14.90;99.90;;;;;;4931187;28;20489;-76
2024/03/14 20:07:07;;;;;;;3.57;3.27;;;14.90;99.90;;;;;;4896630;28;20597;-76
2024/03/14 20:09:35;;;;;;;3.27;2.97;;;14.80;99.90;;;;;;4941263;28;20451;-75
2024/03/14 20:12:04;;;;;;;3.37;3.07;;;14.80;99.90;;;;;;4911309;29;20974;-76
2024/03/14 20:14:32;;;;;;;3.10;2.80;;;14.80;99.90;;;;;;4921895;28;20463;-71
2024/03/14 20:17:01;;;;;;;3.23;2.93;;;14.80;99.90;;;;;;4945155;28;21011;-78
2024/03/14 20:19:31;;;;;;;4.00;3.50;;;14.80;99.90;;;;;;4944508;28;20490;-75
2024/03/14 20:21:58;;;;;;;3.70;3.40;;;14.80;99.90;;;;;;4948521;28;21010;-74
2024/03/14 20:24:26;;;;;;;3.53;3.10;;;14.80;99.90;;;;;;4909732;28;20475;-75
2024/03/14 20:26:53;;;;;;;3.50;3.20;;;14.80;99.90;;;;;;4910377;28;20438;-75
2024/03/14 20:29:20;;;;;;;3.67;3.37;;;14.80;99.90;;;;;;4934177;28;20462;-74
2024/03/14 20:31:46;;;;;;;5.60;3.67;;;14.80;99.90;;;;;;4931301;28;20399;-74
2024/03/14 20:34:14;;;;;;;3.43;3.17;;;14.80;99.90;;;;;;4926400;28;20509;-75
2024/03/14 20:36:40;;;;;;;3.37;3.07;;;14.80;99.90;;;;;;4925496;28;20471;-78
2024/03/14 20:39:13;;;;;;;3.00;2.80;;;14.90;99.90;;;;;;4910361;28;20462;-74
2024/03/14 20:41:43;;;;;;;4.13;3.00;;;14.80;99.90;;;;;;4924673;28;20851;-74
2024/03/14 20:44:09;;;;;;;6.80;3.50;;;14.80;99.90;;;;;;4922203;28;20476;-74
2024/03/14 20:46:35;;;;;;;4.90;3.50;;;14.80;99.90;;;;;;4924594;28;20823;-75
2024/03/14 20:49:07;;;;;;;3.60;3.30;;;14.80;99.90;;;;;;4920898;28;20440;-73
2024/03/14 20:51:36;;;;;;;3.53;3.23;;;14.80;99.90;;;;;;4945249;28;20933;-74
2024/03/14 20:54:04;;;;;;;4.00;3.43;;;14.80;99.90;;;;;;4908996;29;20491;-74
2024/03/14 20:56:48;;;;;;;4.60;3.80;;;14.80;99.90;;;;;;4931087;28;21021;-75
2024/03/14 20:59:17;;;;;;;4.20;3.50;;;14.80;99.90;;;;;;4904884;28;20963;-75
2024/03/14 21:01:46;;;;;;;3.60;3.23;;;14.80;99.90;;;;;;4923196;28;21006;-75
2024/03/14 21:04:14;;;;;;;4.53;3.73;;;14.80;99.90;;;;;;4910819;28;20882;-75
2024/03/14 21:06:40;;;;;;;4.03;3.40;;;14.80;99.90;;;;;;4940862;28;21005;-75
2024/03/14 21:09:11;;;;;;;3.53;3.00;;;14.80;99.90;;;;;;4940889;28;20483;-74
2024/03/14 21:11:40;;;;;;;3.40;3.10;;;14.80;99.90;;;;;;4908047;28;20592;-71
2024/03/14 21:14:08;;;;;;;4.30;3.70;;;14.70;99.90;;;;;;4926638;28;20458;-75
2024/03/14 21:16:37;;;;;;;4.80;3.80;;;14.80;99.90;;;;;;4926246;28;20511;-76
2024/03/14 21:19:03;;;;;;;5.20;4.03;;;14.70;99.90;;;;;;4940726;28;20905;-75
2024/03/14 21:21:30;;;;;;;3.90;3.50;;;14.80;99.90;;;;;;4905519;29;20476;-76
2024/03/14 21:24:05;;;;;;;4.53;4.10;;;14.70;99.90;;;;;;4907142;28;21245;-75
2024/03/14 21:26:36;;;;;;;4.83;3.50;;;14.80;99.90;;;;;;4936963;28;21168;-75
2024/03/14 21:29:06;;;;;;;3.60;3.30;;;14.70;99.90;;;;;;4907445;28;20435;-74
2024/03/14 21:31:34;;;;;;;3.73;3.33;;;14.70;99.90;;;;;;4906505;28;20996;-75
2024/03/14 21:34:05;;;;;;;5.13;4.20;;;14.80;99.90;;;;;;4906891;28;20567;-73
2024/03/14 21:36:34;;;;;;;4.97;4.00;;;14.70;99.90;;;;;;4937042;28;20502;-75
2024/03/14 21:39:09;;;;;;;4.33;3.77;;;14.70;99.90;;;;;;4908769;28;20530;-74
2024/03/14 21:41:39;;;;;;;3.93;3.20;;;14.70;99.90;;;;;;4939311;28;20423;-74
2024/03/14 21:44:08;;;;;;;4.33;3.20;;;14.70;99.90;;;;;;4922159;28;20493;-75
2024/03/14 21:46:37;;;;;;;6.80;3.40;;;14.70;99.90;;;;;;4923337;28;20499;-74
2024/03/14 21:49:06;;;;;;;5.00;4.17;;;14.70;99.90;;;;;;4921918;28;20434;-75
2024/03/14 21:51:34;;;;;;;4.20;3.63;;;14.70;99.90;;;;;;4921874;28;20993;-75
2024/03/14 21:54:00;;;;;;;5.00;3.53;;;14.70;99.90;;;;;;4938732;28;20701;-74
2024/03/14 21:56:27;;;;;;;5.13;4.00;;;14.70;99.90;;;;;;4922104;29;20431;-74
2024/03/14 21:58:53;;;;;;;5.10;3.80;;;14.70;99.90;;;;;;4936499;28;20422;-75
2024/03/14 22:01:21;;;;;;;3.57;3.27;;;14.70;99.90;;;;;;4916507;28;20459;-73
2024/03/14 22:03:50;;;;;;;4.13;3.73;;;14.70;99.90;;;;;;4936763;28;20474;-75
2024/03/14 22:06:19;;;;;;;4.40;4.00;;;14.70;99.90;;;;;;4943308;28;20902;-74
2024/03/14 22:08:47;;;;;;;4.77;3.90;;;14.70;99.90;;;;;;4922172;28;20776;-75
2024/03/14 22:11:15;;;;;;;4.40;4.00;;;14.70;99.90;;;;;;4908715;28;20942;-75
2024/03/14 22:13:42;;;;;;;4.43;4.03;;;14.70;99.90;;;;;;4929679;28;20806;-74
2024/03/14 22:16:14;;;;;;;5.17;3.53;;;14.70;99.90;;;;;;4926103;28;20459;-75
2024/03/14 22:18:41;;;;;;;3.33;3.03;;;14.70;99.90;;;;;;4909754;28;20473;-75
2024/03/14 22:21:07;;;;;;;4.27;3.87;;;14.70;99.90;;;;;;4906332;28;20505;-75
2024/03/14 22:23:36;;;;;;;4.00;3.60;;;14.70;99.90;;;;;;4932731;28;20579;-75
2024/03/14 22:26:02;;;;;;;4.90;3.83;;;14.70;99.90;;;;;;4943675;28;20450;-75
2024/03/14 22:28:29;;;;;;;3.87;3.50;;;14.70;99.90;;;;;;4915341;28;20447;-75
2024/03/14 22:31:00;;;;;;;4.90;3.83;;;14.70;99.90;;;;;;4932197;28;20521;-75
2024/03/14 22:33:31;;;;;;;4.13;3.53;;;14.70;99.90;;;;;;4922144;28;20430;-75
2024/03/14 22:35:57;;;;;;;4.00;3.60;;;14.60;99.90;;;;;;4944981;28;20474;-74
2024/03/14 22:38:23;;;;;;;4.23;3.83;;;14.60;99.90;;;;;;4915137;28;20467;-75
2024/03/14 22:40:49;;;;;;;5.33;4.10;;;14.70;99.90;;;;;;4897892;29;20490;-75
2024/03/14 22:43:15;;;;;;;3.93;3.63;;;14.60;99.90;;;;;;4928015;28;21005;-76
2024/03/14 22:45:41;;;;;;;4.03;3.50;;;14.60;99.90;;;;;;4902010;28;20473;-74
2024/03/14 22:48:10;;;;;;;4.50;3.57;;;14.60;99.90;;;;;;4945927;28;20788;-74
2024/03/14 22:50:36;;;;;;;4.10;3.70;;;14.70;99.90;;;;;;4943810;28;20478;-74
2024/03/14 22:53:07;;;;;;;4.00;3.23;;;14.60;99.90;;;;;;4925981;28;20427;-75
2024/03/14 22:55:39;;;;;;;3.70;3.40;;;14.40;99.90;;;;;;4914203;28;20484;-75
2024/03/14 22:58:06;;;;;;;3.70;3.30;;;14.60;99.90;;;;;;4925287;28;20826;-75
2024/03/14 23:00:38;;;;;;;5.40;3.87;;;14.60;99.90;;;;;;4925114;28;20978;-75
2024/03/14 23:03:04;;;;;;;5.80;4.00;;;14.60;99.90;;;;;;4912431;28;20994;-74
2024/03/14 23:05:41;;;;;;;4.27;3.87;;;14.60;99.90;;;;;;4903904;28;20538;-71
2024/03/14 23:08:15;;;;;;;4.13;3.73;;;14.60;99.90;;;;;;4912801;28;20501;-73
2024/03/14 23:10:45;;;;;;;4.87;4.10;;;14.60;99.90;;;;;;4944216;28;20435;-68
2024/03/14 23:13:21;;;;;;;3.20;2.90;;;14.60;99.90;;;;;;4926197;29;20423;-68
2024/03/14 23:15:48;;;;;;;4.50;3.63;;;14.60;99.90;;;;;;4930171;28;20880;-69
2024/03/14 23:18:18;;;;;;;4.17;3.27;;;14.60;99.90;;;;;;4944043;28;20423;-69
2024/03/14 23:20:45;;;;;;;3.50;3.20;;;14.60;99.90;;;;;;4944670;28;20430;-69
2024/03/14 23:23:12;;;;;;;3.83;3.43;;;14.60;99.90;;;;;;4944632;28;20475;-69
2024/03/14 23:25:41;;;;;;;4.07;3.70;;;14.60;99.90;;;;;;4961181;28;20447;-69
2024/03/14 23:28:07;;;;;;;5.17;3.80;;;14.60;99.90;;;;;;4943695;28;21350;-70
2024/03/14 23:30:36;;;;;;;3.97;3.40;;;14.60;99.90;;;;;;4943335;28;20985;-69
2024/03/14 23:33:08;;;;;;;3.93;3.53;;;14.60;99.90;;;;;;4934491;29;20455;-69
2024/03/14 23:35:34;;;;;;;4.67;4.20;;;14.60;99.90;;;;;;4925150;29;21290;-69
2024/03/14 23:38:03;;;;;;;4.40;3.90;;;14.60;99.90;;;;;;4932110;28;20571;-69
2024/03/14 23:40:31;;;;;;;5.27;4.77;;;14.60;99.90;;;;;;4908631;29;20469;-69
2024/03/14 23:42:59;;;;;;;4.20;3.67;;;14.60;99.90;;;;;;4925331;29;20471;-68
2024/03/14 23:45:28;;;;;;;4.83;4.13;;;14.60;99.90;;;;;;4920387;28;21272;-68
2024/03/14 23:47:54;;;;;;;4.40;3.33;;;14.60;99.90;;;;;;4958114;28;20446;-68
2024/03/14 23:50:24;;;;;;;4.40;4.00;;;14.50;99.90;;;;;;4932072;28;20525;-69
2024/03/14 23:52:55;;;;;;;4.20;3.80;;;14.50;99.90;;;;;;4944303;28;20455;-70
2024/03/14 23:55:21;;;;;;;4.23;3.93;;;14.50;99.90;;;;;;4924299;29;20482;-70
2024/03/14 23:57:55;;;;;;;4.03;3.63;;;14.50;99.90;;;;;;4925057;29;20433;-71
